sensor_id;sensor_type;location;lat;lon;timestamp;P1;durP1;ratioP1;P2;durP2;ratioP2
71083;SDS011;58741;52.672;13.548;2022-08-20T00:00:27;1.60;;;1.13;;
71083;SDS011;58741;52.672;13.548;2022-08-20T00:02:56;2.30;;;1.55;;
71083;SDS011;58741;52.672;13.548;2022-08-20T00:05:31;1.48;;;1.27;;
71083;SDS011;58741;52.672;13.548;2022-08-20T00:07:59;2.28;;;1.38;;
71083;SDS011;58741;52.672;13.548;2022-08-20T00:10:25;1.50;;;1.30;;
71083;SDS011;58741;52.672;13.548;2022-08-20T00:12:53;1.38;;;1.17;;
71083;SDS011;58741;52.672;13.548;2022-08-20T00:15:23;1.05;;;0.93;;
71083;SDS011;58741;52.672;13.548;2022-08-20T00:17:52;1.50;;;1.27;;
71083;SDS011;58741;52.672;13.548;2022-08-20T00:20:19;1.77;;;1.25;;
71083;SDS011;58741;52.672;13.548;2022-08-20T00:22:46;1.35;;;1.15;;
71083;SDS011;58741;52.672;13.548;2022-08-20T00:25:12;1.20;;;1.10;;
71083;SDS011;58741;52.672;13.548;2022-08-20T00:27:38;2.22;;;1.33;;
71083;SDS011;58741;52.672;13.548;2022-08-20T00:30:04;1.58;;;1.20;;
71083;SDS011;58741;52.672;13.548;2022-08-20T00:32:40;1.77;;;1.25;;
71083;SDS011;58741;52.672;13.548;2022-08-20T00:35:10;2.17;;;1.30;;
71083;SDS011;58741;52.672;13.548;2022-08-20T00:37:35;1.25;;;1.15;;
71083;SDS011;58741;52.672;13.548;2022-08-20T00:40:01;2.17;;;1.73;;
71083;SDS011;58741;52.672;13.548;2022-08-20T00:42:28;2.22;;;1.50;;
71083;SDS011;58741;52.672;13.548;2022-08-20T00:44:54;2.40;;;1.20;;
71083;SDS011;58741;52.672;13.548;2022-08-20T00:47:20;1.90;;;1.33;;
71083;SDS011;58741;52.672;13.548;2022-08-20T00:49:45;2.38;;;1.70;;
71083;SDS011;58741;52.672;13.548;2022-08-20T00:52:12;1.60;;;1.45;;
71083;SDS011;58741;52.672;13.548;2022-08-20T00:54:45;2.08;;;1.77;;
71083;SDS011;58741;52.672;13.548;2022-08-20T00:59:58;1.55;;;1.23;;
71083;SDS011;58741;52.672;13.548;2022-08-20T01:02:26;3.25;;;2.45;;
71083;SDS011;58741;52.672;13.548;2022-08-20T01:04:55;1.63;;;1.42;;
71083;SDS011;58741;52.672;13.548;2022-08-20T01:07:21;4.13;;;1.77;;
71083;SDS011;58741;52.672;13.548;2022-08-20T01:09:56;2.13;;;1.33;;
71083;SDS011;58741;52.672;13.548;2022-08-20T01:12:22;1.80;;;1.45;;
71083;SDS011;58741;52.672;13.548;2022-08-20T01:14:49;2.60;;;1.35;;
71083;SDS011;58741;52.672;13.548;2022-08-20T01:17:15;3.58;;;1.73;;
71083;SDS011;58741;52.672;13.548;2022-08-20T01:19:53;3.25;;;2.28;;
71083;SDS011;58741;52.672;13.548;2022-08-20T01:22:31;2.58;;;1.50;;
71083;SDS011;58741;52.672;13.548;2022-08-20T01:25:27;3.38;;;2.20;;
71083;SDS011;58741;52.672;13.548;2022-08-20T01:27:57;1.85;;;1.33;;
71083;SDS011;58741;52.672;13.548;2022-08-20T01:30:24;2.90;;;1.52;;
71083;SDS011;58741;52.672;13.548;2022-08-20T01:32:51;3.25;;;2.10;;
71083;SDS011;58741;52.672;13.548;2022-08-20T01:35:18;2.92;;;1.88;;
71083;SDS011;58741;52.672;13.548;2022-08-20T01:37:45;3.60;;;2.10;;
71083;SDS011;58741;52.672;13.548;2022-08-20T01:40:10;4.72;;;2.72;;
71083;SDS011;58741;52.672;13.548;2022-08-20T01:42:45;2.45;;;1.92;;
71083;SDS011;58741;52.672;13.548;2022-08-20T01:45:13;3.67;;;2.10;;
71083;SDS011;58741;52.672;13.548;2022-08-20T01:47:38;4.28;;;2.50;;
71083;SDS011;58741;52.672;13.548;2022-08-20T01:50:09;4.63;;;2.42;;
71083;SDS011;58741;52.672;13.548;2022-08-20T01:52:51;5.45;;;3.17;;
71083;SDS011;58741;52.672;13.548;2022-08-20T01:55:23;3.58;;;2.28;;
71083;SDS011;58741;52.672;13.548;2022-08-20T01:57:48;4.35;;;2.65;;
71083;SDS011;58741;52.672;13.548;2022-08-20T02:00:16;4.10;;;3.00;;
71083;SDS011;58741;52.672;13.548;2022-08-20T02:02:43;3.05;;;1.77;;
71083;SDS011;58741;52.672;13.548;2022-08-20T02:05:09;6.72;;;3.42;;
71083;SDS011;58741;52.672;13.548;2022-08-20T02:07:35;2.40;;;1.88;;
71083;SDS011;58741;52.672;13.548;2022-08-20T02:10:03;3.88;;;2.58;;
71083;SDS011;58741;52.672;13.548;2022-08-20T02:12:31;3.97;;;3.00;;
71083;SDS011;58741;52.672;13.548;2022-08-20T02:14:56;5.65;;;3.80;;
71083;SDS011;58741;52.672;13.548;2022-08-20T02:17:22;2.10;;;1.63;;
71083;SDS011;58741;52.672;13.548;2022-08-20T02:19:54;4.97;;;2.90;;
71083;SDS011;58741;52.672;13.548;2022-08-20T02:22:26;4.47;;;3.00;;
71083;SDS011;58741;52.672;13.548;2022-08-20T02:25:08;3.45;;;2.38;;
71083;SDS011;58741;52.672;13.548;2022-08-20T02:27:36;4.75;;;2.80;;
71083;SDS011;58741;52.672;13.548;2022-08-20T02:30:05;3.45;;;2.78;;
71083;SDS011;58741;52.672;13.548;2022-08-20T02:32:35;3.25;;;2.58;;
71083;SDS011;58741;52.672;13.548;2022-08-20T02:35:07;3.88;;;2.28;;
71083;SDS011;58741;52.672;13.548;2022-08-20T02:37:36;2.85;;;2.03;;
71083;SDS011;58741;52.672;13.548;2022-08-20T02:40:04;3.40;;;2.10;;
71083;SDS011;58741;52.672;13.548;2022-08-20T02:42:32;3.20;;;2.20;;
71083;SDS011;58741;52.672;13.548;2022-08-20T02:44:58;3.65;;;2.10;;
71083;SDS011;58741;52.672;13.548;2022-08-20T02:47:24;2.58;;;1.60;;
71083;SDS011;58741;52.672;13.548;2022-08-20T02:49:51;3.15;;;2.15;;
71083;SDS011;58741;52.672;13.548;2022-08-20T02:52:18;2.45;;;1.48;;
71083;SDS011;58741;52.672;13.548;2022-08-20T02:54:43;3.65;;;2.65;;
71083;SDS011;58741;52.672;13.548;2022-08-20T02:57:12;4.13;;;2.70;;
71083;SDS011;58741;52.672;13.548;2022-08-20T02:59:39;2.17;;;1.83;;
71083;SDS011;58741;52.672;13.548;2022-08-20T03:02:04;5.40;;;3.30;;
71083;SDS011;58741;52.672;13.548;2022-08-20T03:04:30;3.67;;;2.47;;
71083;SDS011;58741;52.672;13.548;2022-08-20T03:06:56;2.95;;;1.98;;
71083;SDS011;58741;52.672;13.548;2022-08-20T03:09:23;3.63;;;2.50;;
71083;SDS011;58741;52.672;13.548;2022-08-20T03:11:48;2.25;;;1.70;;
71083;SDS011;58741;52.672;13.548;2022-08-20T03:14:15;4.82;;;2.58;;
71083;SDS011;58741;52.672;13.548;2022-08-20T03:16:40;2.70;;;1.88;;
71083;SDS011;58741;52.672;13.548;2022-08-20T03:19:07;3.95;;;2.65;;
71083;SDS011;58741;52.672;13.548;2022-08-20T03:21:32;2.03;;;1.38;;
71083;SDS011;58741;52.672;13.548;2022-08-20T03:23:59;3.50;;;1.80;;
71083;SDS011;58741;52.672;13.548;2022-08-20T03:26:24;4.45;;;2.50;;
71083;SDS011;58741;52.672;13.548;2022-08-20T03:28:50;3.35;;;2.38;;
71083;SDS011;58741;52.672;13.548;2022-08-20T03:31:15;3.42;;;2.15;;
71083;SDS011;58741;52.672;13.548;2022-08-20T03:33:41;2.15;;;1.45;;
71083;SDS011;58741;52.672;13.548;2022-08-20T03:36:07;2.67;;;2.00;;
71083;SDS011;58741;52.672;13.548;2022-08-20T03:38:33;2.17;;;1.67;;
71083;SDS011;58741;52.672;13.548;2022-08-20T03:40:59;3.03;;;2.20;;
71083;SDS011;58741;52.672;13.548;2022-08-20T03:43:25;2.85;;;2.05;;
71083;SDS011;58741;52.672;13.548;2022-08-20T03:45:51;3.20;;;2.28;;
71083;SDS011;58741;52.672;13.548;2022-08-20T03:48:17;3.40;;;2.38;;
71083;SDS011;58741;52.672;13.548;2022-08-20T03:50:44;3.30;;;1.75;;
71083;SDS011;58741;52.672;13.548;2022-08-20T03:53:11;3.13;;;1.98;;
71083;SDS011;58741;52.672;13.548;2022-08-20T03:55:38;3.38;;;2.15;;
71083;SDS011;58741;52.672;13.548;2022-08-20T03:58:05;3.15;;;1.63;;
71083;SDS011;58741;52.672;13.548;2022-08-20T04:00:42;3.67;;;1.13;;
71083;SDS011;58741;52.672;13.548;2022-08-20T04:03:10;1.63;;;0.90;;
71083;SDS011;58741;52.672;13.548;2022-08-20T04:05:36;4.20;;;1.40;;
71083;SDS011;58741;52.672;13.548;2022-08-20T04:08:04;1.65;;;0.85;;
71083;SDS011;58741;52.672;13.548;2022-08-20T04:10:42;1.35;;;1.25;;
71083;SDS011;58741;52.672;13.548;2022-08-20T04:13:09;2.08;;;1.38;;
71083;SDS011;58741;52.672;13.548;2022-08-20T04:15:34;1.52;;;1.20;;
71083;SDS011;58741;52.672;13.548;2022-08-20T04:18:01;2.70;;;1.50;;
71083;SDS011;58741;52.672;13.548;2022-08-20T04:20:30;4.65;;;2.88;;
71083;SDS011;58741;52.672;13.548;2022-08-20T04:22:56;4.53;;;2.95;;
71083;SDS011;58741;52.672;13.548;2022-08-20T04:25:22;3.90;;;2.53;;
71083;SDS011;58741;52.672;13.548;2022-08-20T04:27:48;6.05;;;3.42;;
71083;SDS011;58741;52.672;13.548;2022-08-20T04:30:15;4.45;;;3.30;;
71083;SDS011;58741;52.672;13.548;2022-08-20T04:32:42;7.18;;;3.40;;
71083;SDS011;58741;52.672;13.548;2022-08-20T04:35:09;4.82;;;3.50;;
71083;SDS011;58741;52.672;13.548;2022-08-20T04:37:41;7.35;;;3.85;;
71083;SDS011;58741;52.672;13.548;2022-08-20T04:40:08;3.85;;;2.35;;
71083;SDS011;58741;52.672;13.548;2022-08-20T04:42:55;7.35;;;3.22;;
71083;SDS011;58741;52.672;13.548;2022-08-20T04:45:21;3.85;;;2.67;;
71083;SDS011;58741;52.672;13.548;2022-08-20T04:47:48;2.80;;;2.10;;
71083;SDS011;58741;52.672;13.548;2022-08-20T04:50:14;3.20;;;2.33;;
71083;SDS011;58741;52.672;13.548;2022-08-20T04:52:41;3.58;;;2.13;;
71083;SDS011;58741;52.672;13.548;2022-08-20T04:55:07;4.32;;;2.50;;
71083;SDS011;58741;52.672;13.548;2022-08-20T04:57:33;6.13;;;3.95;;
71083;SDS011;58741;52.672;13.548;2022-08-20T05:00:03;4.15;;;2.78;;
71083;SDS011;58741;52.672;13.548;2022-08-20T05:02:30;5.32;;;3.00;;
71083;SDS011;58741;52.672;13.548;2022-08-20T05:04:56;4.90;;;3.88;;
71083;SDS011;58741;52.672;13.548;2022-08-20T05:07:21;4.95;;;3.13;;
71083;SDS011;58741;52.672;13.548;2022-08-20T05:09:47;5.28;;;2.78;;
71083;SDS011;58741;52.672;13.548;2022-08-20T05:12:13;5.65;;;3.55;;
71083;SDS011;58741;52.672;13.548;2022-08-20T05:14:41;4.10;;;2.65;;
71083;SDS011;58741;52.672;13.548;2022-08-20T05:17:07;7.72;;;3.05;;
71083;SDS011;58741;52.672;13.548;2022-08-20T05:19:33;4.22;;;3.15;;
71083;SDS011;58741;52.672;13.548;2022-08-20T05:22:01;4.50;;;2.83;;
71083;SDS011;58741;52.672;13.548;2022-08-20T05:24:28;4.30;;;3.10;;
71083;SDS011;58741;52.672;13.548;2022-08-20T05:26:53;6.80;;;3.38;;
71083;SDS011;58741;52.672;13.548;2022-08-20T05:29:19;4.20;;;2.53;;
71083;SDS011;58741;52.672;13.548;2022-08-20T05:31:47;4.50;;;2.08;;
71083;SDS011;58741;52.672;13.548;2022-08-20T05:34:13;4.85;;;3.00;;
71083;SDS011;58741;52.672;13.548;2022-08-20T05:36:39;3.38;;;2.65;;
71083;SDS011;58741;52.672;13.548;2022-08-20T05:39:09;5.88;;;3.03;;
71083;SDS011;58741;52.672;13.548;2022-08-20T05:41:35;4.50;;;2.95;;
71083;SDS011;58741;52.672;13.548;2022-08-20T05:44:02;3.47;;;2.65;;
71083;SDS011;58741;52.672;13.548;2022-08-20T05:46:29;3.53;;;2.95;;
71083;SDS011;58741;52.672;13.548;2022-08-20T05:48:55;4.80;;;2.97;;
71083;SDS011;58741;52.672;13.548;2022-08-20T05:51:21;4.32;;;2.90;;
71083;SDS011;58741;52.672;13.548;2022-08-20T05:53:46;5.63;;;3.22;;
71083;SDS011;58741;52.672;13.548;2022-08-20T05:56:12;6.47;;;3.20;;
71083;SDS011;58741;52.672;13.548;2022-08-20T05:58:37;3.78;;;2.72;;
71083;SDS011;58741;52.672;13.548;2022-08-20T06:01:03;4.22;;;2.88;;
71083;SDS011;58741;52.672;13.548;2022-08-20T06:03:29;5.55;;;3.40;;
71083;SDS011;58741;52.672;13.548;2022-08-20T06:06:13;6.15;;;3.72;;
71083;SDS011;58741;52.672;13.548;2022-08-20T06:08:39;5.85;;;3.55;;
71083;SDS011;58741;52.672;13.548;2022-08-20T06:11:05;3.58;;;2.47;;
71083;SDS011;58741;52.672;13.548;2022-08-20T06:13:31;4.30;;;2.88;;
71083;SDS011;58741;52.672;13.548;2022-08-20T06:15:57;5.03;;;3.53;;
71083;SDS011;58741;52.672;13.548;2022-08-20T06:18:23;4.50;;;2.42;;
71083;SDS011;58741;52.672;13.548;2022-08-20T06:20:48;6.60;;;2.72;;
71083;SDS011;58741;52.672;13.548;2022-08-20T06:23:14;32.33;;;2.60;;
71083;SDS011;58741;52.672;13.548;2022-08-20T06:25:41;6.32;;;3.72;;
71083;SDS011;58741;52.672;13.548;2022-08-20T06:28:06;5.35;;;3.65;;
71083;SDS011;58741;52.672;13.548;2022-08-20T06:30:32;10.90;;;4.43;;
71083;SDS011;58741;52.672;13.548;2022-08-20T06:32:59;5.18;;;4.00;;
71083;SDS011;58741;52.672;13.548;2022-08-20T06:35:24;10.18;;;5.47;;
71083;SDS011;58741;52.672;13.548;2022-08-20T06:37:50;3.97;;;3.45;;
71083;SDS011;58741;52.672;13.548;2022-08-20T06:40:21;4.70;;;3.33;;
71083;SDS011;58741;52.672;13.548;2022-08-20T06:42:49;3.78;;;2.70;;
71083;SDS011;58741;52.672;13.548;2022-08-20T06:45:17;6.32;;;3.28;;
71083;SDS011;58741;52.672;13.548;2022-08-20T06:47:48;4.70;;;3.40;;
71083;SDS011;58741;52.672;13.548;2022-08-20T06:50:19;4.13;;;2.90;;
71083;SDS011;58741;52.672;13.548;2022-08-20T06:52:46;5.20;;;2.97;;
71083;SDS011;58741;52.672;13.548;2022-08-20T06:55:13;3.50;;;2.70;;
71083;SDS011;58741;52.672;13.548;2022-08-20T06:57:39;3.65;;;2.80;;
71083;SDS011;58741;52.672;13.548;2022-08-20T07:00:07;4.20;;;3.60;;
71083;SDS011;58741;52.672;13.548;2022-08-20T07:02:43;3.85;;;2.80;;
71083;SDS011;58741;52.672;13.548;2022-08-20T07:05:11;2.58;;;1.73;;
71083;SDS011;58741;52.672;13.548;2022-08-20T07:07:36;5.15;;;3.60;;
71083;SDS011;58741;52.672;13.548;2022-08-20T07:10:03;4.25;;;3.42;;
71083;SDS011;58741;52.672;13.548;2022-08-20T07:12:34;7.05;;;4.18;;
71083;SDS011;58741;52.672;13.548;2022-08-20T07:15:00;3.38;;;2.42;;
71083;SDS011;58741;52.672;13.548;2022-08-20T07:17:29;6.50;;;4.00;;
71083;SDS011;58741;52.672;13.548;2022-08-20T07:19:54;3.63;;;2.00;;
71083;SDS011;58741;52.672;13.548;2022-08-20T07:22:20;3.17;;;1.65;;
71083;SDS011;58741;52.672;13.548;2022-08-20T07:24:45;3.58;;;2.75;;
71083;SDS011;58741;52.672;13.548;2022-08-20T07:27:11;3.45;;;1.92;;
71083;SDS011;58741;52.672;13.548;2022-08-20T07:29:37;3.80;;;3.00;;
71083;SDS011;58741;52.672;13.548;2022-08-20T07:32:21;4.20;;;3.00;;
71083;SDS011;58741;52.672;13.548;2022-08-20T07:34:59;4.80;;;2.58;;
71083;SDS011;58741;52.672;13.548;2022-08-20T07:37:25;4.78;;;2.42;;
71083;SDS011;58741;52.672;13.548;2022-08-20T07:39:50;3.35;;;2.40;;
71083;SDS011;58741;52.672;13.548;2022-08-20T07:42:17;6.13;;;4.18;;
71083;SDS011;58741;52.672;13.548;2022-08-20T07:44:42;8.77;;;4.32;;
71083;SDS011;58741;52.672;13.548;2022-08-20T07:47:08;4.43;;;2.83;;
71083;SDS011;58741;52.672;13.548;2022-08-20T07:49:37;4.60;;;3.00;;
71083;SDS011;58741;52.672;13.548;2022-08-20T07:52:04;5.65;;;2.88;;
71083;SDS011;58741;52.672;13.548;2022-08-20T07:54:30;5.47;;;3.38;;
71083;SDS011;58741;52.672;13.548;2022-08-20T07:57:00;5.18;;;2.35;;
71083;SDS011;58741;52.672;13.548;2022-08-20T07:59:28;5.75;;;3.20;;
71083;SDS011;58741;52.672;13.548;2022-08-20T08:01:54;6.63;;;3.17;;
71083;SDS011;58741;52.672;13.548;2022-08-20T08:04:20;7.20;;;3.90;;
71083;SDS011;58741;52.672;13.548;2022-08-20T08:06:48;3.67;;;2.28;;
71083;SDS011;58741;52.672;13.548;2022-08-20T08:09:15;5.78;;;3.03;;
71083;SDS011;58741;52.672;13.548;2022-08-20T08:11:46;7.07;;;3.35;;
71083;SDS011;58741;52.672;13.548;2022-08-20T08:14:14;3.63;;;2.50;;
71083;SDS011;58741;52.672;13.548;2022-08-20T08:16:43;4.68;;;2.92;;
71083;SDS011;58741;52.672;13.548;2022-08-20T08:19:09;5.28;;;3.63;;
71083;SDS011;58741;52.672;13.548;2022-08-20T08:21:38;7.07;;;4.20;;
71083;SDS011;58741;52.672;13.548;2022-08-20T08:24:05;6.22;;;3.30;;
71083;SDS011;58741;52.672;13.548;2022-08-20T08:26:31;4.93;;;3.17;;
71083;SDS011;58741;52.672;13.548;2022-08-20T08:28:56;3.30;;;2.72;;
71083;SDS011;58741;52.672;13.548;2022-08-20T08:31:22;5.28;;;2.45;;
71083;SDS011;58741;52.672;13.548;2022-08-20T08:33:49;4.68;;;3.05;;
71083;SDS011;58741;52.672;13.548;2022-08-20T08:36:15;6.60;;;2.63;;
71083;SDS011;58741;52.672;13.548;2022-08-20T08:38:41;6.50;;;2.53;;
71083;SDS011;58741;52.672;13.548;2022-08-20T08:43:43;5.50;;;3.55;;
71083;SDS011;58741;52.672;13.548;2022-08-20T08:46:11;4.75;;;2.90;;
71083;SDS011;58741;52.672;13.548;2022-08-20T08:48:43;7.65;;;4.88;;
71083;SDS011;58741;52.672;13.548;2022-08-20T08:53:41;5.15;;;3.30;;
71083;SDS011;58741;52.672;13.548;2022-08-20T08:56:11;4.60;;;2.42;;
71083;SDS011;58741;52.672;13.548;2022-08-20T08:58:38;3.67;;;2.75;;
71083;SDS011;58741;52.672;13.548;2022-08-20T09:01:09;8.13;;;4.57;;
71083;SDS011;58741;52.672;13.548;2022-08-20T09:03:37;5.05;;;2.35;;
71083;SDS011;58741;52.672;13.548;2022-08-20T09:06:07;4.72;;;2.53;;
71083;SDS011;58741;52.672;13.548;2022-08-20T09:08:42;5.20;;;1.95;;
71083;SDS011;58741;52.672;13.548;2022-08-20T09:11:11;2.97;;;1.70;;
71083;SDS011;58741;52.672;13.548;2022-08-20T09:13:38;2.22;;;1.55;;
71083;SDS011;58741;52.672;13.548;2022-08-20T09:16:04;5.85;;;2.10;;
71083;SDS011;58741;52.672;13.548;2022-08-20T09:18:30;2.90;;;1.85;;
71083;SDS011;58741;52.672;13.548;2022-08-20T09:20:56;4.32;;;2.05;;
71083;SDS011;58741;52.672;13.548;2022-08-20T09:23:21;6.15;;;1.42;;
71083;SDS011;58741;52.672;13.548;2022-08-20T09:25:47;8.80;;;4.88;;
71083;SDS011;58741;52.672;13.548;2022-08-20T09:28:13;5.28;;;2.75;;
71083;SDS011;58741;52.672;13.548;2022-08-20T09:30:38;16.27;;;3.33;;
71083;SDS011;58741;52.672;13.548;2022-08-20T09:33:04;2.88;;;1.38;;
71083;SDS011;58741;52.672;13.548;2022-08-20T09:35:29;4.78;;;2.70;;
71083;SDS011;58741;52.672;13.548;2022-08-20T09:37:55;3.97;;;1.75;;
71083;SDS011;58741;52.672;13.548;2022-08-20T09:40:20;5.55;;;3.25;;
71083;SDS011;58741;52.672;13.548;2022-08-20T09:42:46;6.43;;;3.40;;
71083;SDS011;58741;52.672;13.548;2022-08-20T09:45:13;5.15;;;3.55;;
71083;SDS011;58741;52.672;13.548;2022-08-20T09:47:39;4.95;;;2.60;;
71083;SDS011;58741;52.672;13.548;2022-08-20T09:50:06;6.32;;;3.85;;
71083;SDS011;58741;52.672;13.548;2022-08-20T09:52:36;5.15;;;3.13;;
71083;SDS011;58741;52.672;13.548;2022-08-20T09:57:48;6.38;;;3.10;;
71083;SDS011;58741;52.672;13.548;2022-08-20T10:00:15;5.97;;;3.67;;
71083;SDS011;58741;52.672;13.548;2022-08-20T10:02:42;6.53;;;3.80;;
71083;SDS011;58741;52.672;13.548;2022-08-20T10:05:07;7.43;;;4.57;;
71083;SDS011;58741;52.672;13.548;2022-08-20T10:07:34;6.38;;;4.63;;
71083;SDS011;58741;52.672;13.548;2022-08-20T10:10:02;5.95;;;3.97;;
71083;SDS011;58741;52.672;13.548;2022-08-20T10:12:29;5.95;;;4.35;;
71083;SDS011;58741;52.672;13.548;2022-08-20T10:14:55;4.43;;;3.72;;
71083;SDS011;58741;52.672;13.548;2022-08-20T10:17:20;4.03;;;2.72;;
71083;SDS011;58741;52.672;13.548;2022-08-20T10:19:46;4.38;;;3.10;;
71083;SDS011;58741;52.672;13.548;2022-08-20T10:22:11;7.07;;;3.22;;
71083;SDS011;58741;52.672;13.548;2022-08-20T10:24:37;4.30;;;2.58;;
71083;SDS011;58741;52.672;13.548;2022-08-20T10:27:02;7.28;;;4.35;;
71083;SDS011;58741;52.672;13.548;2022-08-20T10:29:28;6.50;;;3.80;;
71083;SDS011;58741;52.672;13.548;2022-08-20T10:31:54;3.97;;;2.40;;
71083;SDS011;58741;52.672;13.548;2022-08-20T10:34:21;6.85;;;3.08;;
71083;SDS011;58741;52.672;13.548;2022-08-20T10:36:47;5.32;;;3.63;;
71083;SDS011;58741;52.672;13.548;2022-08-20T10:39:13;7.47;;;3.25;;
71083;SDS011;58741;52.672;13.548;2022-08-20T10:41:39;5.63;;;2.75;;
71083;SDS011;58741;52.672;13.548;2022-08-20T10:44:05;7.07;;;4.05;;
71083;SDS011;58741;52.672;13.548;2022-08-20T10:46:30;9.65;;;3.75;;
71083;SDS011;58741;52.672;13.548;2022-08-20T10:48:56;6.38;;;3.15;;
71083;SDS011;58741;52.672;13.548;2022-08-20T10:51:21;6.43;;;3.60;;
71083;SDS011;58741;52.672;13.548;2022-08-20T10:53:47;6.82;;;3.08;;
71083;SDS011;58741;52.672;13.548;2022-08-20T10:56:12;5.10;;;2.60;;
71083;SDS011;58741;52.672;13.548;2022-08-20T10:58:38;5.68;;;2.90;;
71083;SDS011;58741;52.672;13.548;2022-08-20T11:01:03;3.85;;;2.53;;
71083;SDS011;58741;52.672;13.548;2022-08-20T11:03:29;6.93;;;3.40;;
71083;SDS011;58741;52.672;13.548;2022-08-20T11:05:55;3.55;;;2.13;;
71083;SDS011;58741;52.672;13.548;2022-08-20T11:08:21;4.13;;;2.38;;
71083;SDS011;58741;52.672;13.548;2022-08-20T11:10:46;5.95;;;3.10;;
71083;SDS011;58741;52.672;13.548;2022-08-20T11:13:12;3.63;;;2.47;;
71083;SDS011;58741;52.672;13.548;2022-08-20T11:15:38;6.15;;;2.97;;
71083;SDS011;58741;52.672;13.548;2022-08-20T11:18:06;2.80;;;2.22;;
71083;SDS011;58741;52.672;13.548;2022-08-20T11:20:32;3.70;;;2.53;;
71083;SDS011;58741;52.672;13.548;2022-08-20T11:22:59;7.80;;;3.17;;
71083;SDS011;58741;52.672;13.548;2022-08-20T11:25:25;3.90;;;2.53;;
71083;SDS011;58741;52.672;13.548;2022-08-20T11:27:51;3.25;;;2.28;;
71083;SDS011;58741;52.672;13.548;2022-08-20T11:30:20;2.88;;;1.77;;
71083;SDS011;58741;52.672;13.548;2022-08-20T11:32:51;3.78;;;2.55;;
71083;SDS011;58741;52.672;13.548;2022-08-20T11:35:16;2.15;;;1.77;;
71083;SDS011;58741;52.672;13.548;2022-08-20T11:37:45;3.72;;;2.80;;
71083;SDS011;58741;52.672;13.548;2022-08-20T11:40:11;3.83;;;2.22;;
71083;SDS011;58741;52.672;13.548;2022-08-20T11:42:37;3.35;;;1.85;;
71083;SDS011;58741;52.672;13.548;2022-08-20T11:45:03;4.18;;;2.08;;
71083;SDS011;58741;52.672;13.548;2022-08-20T11:47:30;1.85;;;1.35;;
71083;SDS011;58741;52.672;13.548;2022-08-20T11:50:01;3.63;;;1.63;;
71083;SDS011;58741;52.672;13.548;2022-08-20T11:52:34;3.83;;;2.00;;
71083;SDS011;58741;52.672;13.548;2022-08-20T11:55:00;2.40;;;1.73;;
71083;SDS011;58741;52.672;13.548;2022-08-20T11:57:27;3.63;;;1.77;;
71083;SDS011;58741;52.672;13.548;2022-08-20T11:59:56;1.67;;;1.17;;
71083;SDS011;58741;52.672;13.548;2022-08-20T12:02:23;2.05;;;1.45;;
71083;SDS011;58741;52.672;13.548;2022-08-20T12:04:49;3.05;;;1.75;;
71083;SDS011;58741;52.672;13.548;2022-08-20T12:07:15;3.25;;;1.52;;
71083;SDS011;58741;52.672;13.548;2022-08-20T12:09:43;1.90;;;1.67;;
71083;SDS011;58741;52.672;13.548;2022-08-20T12:12:10;3.25;;;2.10;;
71083;SDS011;58741;52.672;13.548;2022-08-20T12:14:35;2.92;;;2.25;;
71083;SDS011;58741;52.672;13.548;2022-08-20T12:17:08;2.67;;;1.88;;
71083;SDS011;58741;52.672;13.548;2022-08-20T12:19:35;2.78;;;2.08;;
71083;SDS011;58741;52.672;13.548;2022-08-20T12:22:05;2.15;;;1.30;;
71083;SDS011;58741;52.672;13.548;2022-08-20T12:24:32;1.55;;;1.30;;
71083;SDS011;58741;52.672;13.548;2022-08-20T12:27:15;1.95;;;1.58;;
71083;SDS011;58741;52.672;13.548;2022-08-20T12:29:46;2.83;;;1.95;;
71083;SDS011;58741;52.672;13.548;2022-08-20T12:32:13;3.05;;;1.80;;
71083;SDS011;58741;52.672;13.548;2022-08-20T12:34:40;1.65;;;1.30;;
71083;SDS011;58741;52.672;13.548;2022-08-20T12:37:07;2.65;;;1.73;;
71083;SDS011;58741;52.672;13.548;2022-08-20T12:39:36;2.55;;;1.40;;
71083;SDS011;58741;52.672;13.548;2022-08-20T12:42:06;1.52;;;1.10;;
71083;SDS011;58741;52.672;13.548;2022-08-20T12:44:33;2.25;;;1.90;;
71083;SDS011;58741;52.672;13.548;2022-08-20T12:47:13;1.50;;;1.40;;
71083;SDS011;58741;52.672;13.548;2022-08-20T12:49:51;1.90;;;1.73;;
71083;SDS011;58741;52.672;13.548;2022-08-20T12:52:19;1.90;;;1.35;;
71083;SDS011;58741;52.672;13.548;2022-08-20T12:54:46;1.45;;;1.25;;
71083;SDS011;58741;52.672;13.548;2022-08-20T12:57:13;3.20;;;1.60;;
71083;SDS011;58741;52.672;13.548;2022-08-20T12:59:39;3.70;;;1.55;;
71083;SDS011;58741;52.672;13.548;2022-08-20T13:02:05;1.02;;;0.93;;
71083;SDS011;58741;52.672;13.548;2022-08-20T13:04:31;1.35;;;0.77;;
71083;SDS011;58741;52.672;13.548;2022-08-20T13:07:00;1.33;;;1.00;;
71083;SDS011;58741;52.672;13.548;2022-08-20T13:09:26;0.80;;;0.80;;
71083;SDS011;58741;52.672;13.548;2022-08-20T13:11:52;1.95;;;1.30;;
71083;SDS011;58741;52.672;13.548;2022-08-20T13:14:17;1.30;;;1.05;;
71083;SDS011;58741;52.672;13.548;2022-08-20T13:16:43;1.38;;;1.17;;
71083;SDS011;58741;52.672;13.548;2022-08-20T13:19:08;1.60;;;1.00;;
71083;SDS011;58741;52.672;13.548;2022-08-20T13:21:34;1.67;;;1.17;;
71083;SDS011;58741;52.672;13.548;2022-08-20T13:24:00;1.85;;;0.80;;
71083;SDS011;58741;52.672;13.548;2022-08-20T13:26:26;1.85;;;1.42;;
71083;SDS011;58741;52.672;13.548;2022-08-20T13:28:52;1.33;;;1.17;;
71083;SDS011;58741;52.672;13.548;2022-08-20T13:31:17;2.67;;;1.38;;
71083;SDS011;58741;52.672;13.548;2022-08-20T13:33:43;1.55;;;0.85;;
71083;SDS011;58741;52.672;13.548;2022-08-20T13:36:09;2.38;;;1.52;;
71083;SDS011;58741;52.672;13.548;2022-08-20T13:38:34;1.58;;;1.10;;
71083;SDS011;58741;52.672;13.548;2022-08-20T13:41:00;2.05;;;1.30;;
71083;SDS011;58741;52.672;13.548;2022-08-20T13:43:25;1.85;;;1.20;;
71083;SDS011;58741;52.672;13.548;2022-08-20T13:45:51;1.02;;;0.80;;
71083;SDS011;58741;52.672;13.548;2022-08-20T13:48:16;2.75;;;1.60;;
71083;SDS011;58741;52.672;13.548;2022-08-20T13:50:42;1.48;;;0.60;;
71083;SDS011;58741;52.672;13.548;2022-08-20T13:53:08;1.58;;;1.15;;
71083;SDS011;58741;52.672;13.548;2022-08-20T13:55:33;1.98;;;1.60;;
71083;SDS011;58741;52.672;13.548;2022-08-20T13:58:02;1.13;;;0.90;;
71083;SDS011;58741;52.672;13.548;2022-08-20T14:00:30;2.20;;;1.15;;
71083;SDS011;58741;52.672;13.548;2022-08-20T14:02:56;1.35;;;1.25;;
71083;SDS011;58741;52.672;13.548;2022-08-20T14:05:22;1.52;;;1.42;;
71083;SDS011;58741;52.672;13.548;2022-08-20T14:07:48;2.35;;;1.70;;
71083;SDS011;58741;52.672;13.548;2022-08-20T14:10:16;0.85;;;0.85;;
71083;SDS011;58741;52.672;13.548;2022-08-20T14:12:43;1.45;;;1.17;;
71083;SDS011;58741;52.672;13.548;2022-08-20T14:15:09;1.98;;;1.45;;
71083;SDS011;58741;52.672;13.548;2022-08-20T14:17:36;2.30;;;1.77;;
71083;SDS011;58741;52.672;13.548;2022-08-20T14:20:06;2.17;;;1.25;;
71083;SDS011;58741;52.672;13.548;2022-08-20T14:22:32;2.00;;;1.67;;
71083;SDS011;58741;52.672;13.548;2022-08-20T14:24:58;1.23;;;1.05;;
71083;SDS011;58741;52.672;13.548;2022-08-20T14:27:27;1.40;;;1.23;;
71083;SDS011;58741;52.672;13.548;2022-08-20T14:29:54;2.70;;;1.73;;
71083;SDS011;58741;52.672;13.548;2022-08-20T14:32:19;3.20;;;1.65;;
71083;SDS011;58741;52.672;13.548;2022-08-20T14:34:45;1.98;;;1.38;;
71083;SDS011;58741;52.672;13.548;2022-08-20T14:37:20;2.53;;;1.65;;
71083;SDS011;58741;52.672;13.548;2022-08-20T14:39:50;2.20;;;1.50;;
71083;SDS011;58741;52.672;13.548;2022-08-20T14:42:18;2.10;;;1.80;;
71083;SDS011;58741;52.672;13.548;2022-08-20T14:44:46;2.83;;;2.05;;